Time;durP1;ratioP1;P1;durP2;ratioP2;P2;SDS_P1;SDS_P2;PMS_P1;PMS_P2;Temp;Humidity;BMP_temperature;BMP_pressure;BME280_temperature;BME280_humidity;BME280_pressure;Samples;Min_cycle;Max_cycle;Signal;HPM_P1;HPM_P2
2021/05/02 00:01:06;;;;;;;34.53;28.95;;;8.20;99.90;;;;;;5034041;28;20096;-74
2021/05/02 00:03:32;;;;;;;31.88;27.15;;;8.20;99.90;;;;;;5007508;28;20049;-74
2021/05/02 00:05:59;;;;;;;33.72;30.08;;;8.20;99.90;;;;;;5016807;28;20484;-72
2021/05/02 00:08:25;;;;;;;36.35;30.92;;;8.10;99.90;;;;;;5024967;28;20022;-73
2021/05/02 00:10:50;;;;;;;34.95;30.02;;;8.10;99.90;;;;;;5008803;28;20431;-73
2021/05/02 00:13:16;;;;;;;38.63;33.08;;;8.20;99.90;;;;;;5014069;28;20029;-74
2021/05/02 00:15:42;;;;;;;43.30;35.15;;;8.20;99.90;;;;;;5029684;28;20136;-74
2021/05/02 00:18:07;;;;;;;38.28;32.90;;;8.20;99.90;;;;;;5033773;28;20475;-74
2021/05/02 00:20:33;;;;;;;41.53;35.30;;;8.20;99.90;;;;;;5000529;28;20079;-70
2021/05/02 00:23:02;;;;;;;40.83;35.05;;;8.30;99.90;;;;;;5014010;28;20033;-72
2021/05/02 00:25:30;;;;;;;43.53;35.80;;;8.30;99.90;;;;;;5016712;28;20029;-73
2021/05/02 00:27:56;;;;;;;45.40;37.85;;;8.30;99.90;;;;;;5015123;28;20083;-71
2021/05/02 00:30:24;;;;;;;48.28;39.13;;;8.30;99.90;;;;;;5013836;28;20037;-72
2021/05/02 00:32:52;;;;;;;53.38;40.33;;;8.20;99.90;;;;;;4996290;28;20018;-71
2021/05/02 00:35:22;;;;;;;42.08;36.38;;;8.30;99.90;;;;;;5030606;28;20021;-71
2021/05/02 00:37:49;;;;;;;51.92;41.00;;;8.20;99.90;;;;;;5022693;28;20476;-71
2021/05/02 00:40:20;;;;;;;47.97;39.40;;;8.20;99.90;;;;;;5000468;28;20026;-71
2021/05/02 00:42:52;;;;;;;47.50;40.40;;;8.10;99.90;;;;;;5033507;28;20060;-71
2021/05/02 00:45:25;;;;;;;46.65;39.22;;;8.10;99.90;;;;;;5013527;28;20021;-69
2021/05/02 00:47:57;;;;;;;47.55;38.80;;;8.10;99.90;;;;;;5013721;28;20029;-73
2021/05/02 00:50:28;;;;;;;46.42;38.40;;;8.10;99.90;;;;;;5013452;28;20476;-73
2021/05/02 00:53:03;;;;;;;43.65;36.55;;;8.00;99.90;;;;;;5028155;28;20036;-72
2021/05/02 00:55:37;;;;;;;44.97;38.22;;;8.00;99.90;;;;;;5015238;28;20455;-73
2021/05/02 00:58:05;;;;;;;45.47;38.15;;;8.00;99.90;;;;;;5033177;28;20022;-73
2021/05/02 01:00:37;;;;;;;41.47;33.97;;;8.10;99.90;;;;;;5022217;28;20116;-72
2021/05/02 01:03:06;;;;;;;40.97;36.53;;;8.00;99.90;;;;;;5026753;28;20065;-73
2021/05/02 01:05:32;;;;;;;43.15;37.85;;;8.00;99.90;;;;;;5024829;28;20471;-72
2021/05/02 01:08:01;;;;;;;43.53;37.83;;;8.00;99.90;;;;;;5028103;28;20030;-70
2021/05/02 01:10:28;;;;;;;41.65;35.92;;;8.00;99.90;;;;;;5007153;28;20022;-72
2021/05/02 01:12:56;;;;;;;44.10;38.38;;;8.00;99.90;;;;;;5002204;28;20036;-72
2021/05/02 01:15:26;;;;;;;42.28;36.30;;;7.90;99.90;;;;;;5020728;28;20045;-72
2021/05/02 01:17:59;;;;;;;43.25;36.50;;;8.00;99.90;;;;;;5026506;28;20100;-72
2021/05/02 01:20:26;;;;;;;44.58;36.22;;;8.00;99.90;;;;;;4979017;28;20169;-73
2021/05/02 01:22:57;;;;;;;35.47;31.05;;;8.00;99.90;;;;;;5015505;28;20111;-73
2021/05/02 01:25:23;;;;;;;35.42;29.88;;;7.90;99.90;;;;;;5017150;28;20105;-73
2021/05/02 01:27:58;;;;;;;30.58;27.45;;;8.10;99.90;;;;;;5026651;28;20025;-73
2021/05/02 01:30:26;;;;;;;33.67;30.05;;;8.00;99.90;;;;;;5016664;28;20110;-72
2021/05/02 01:32:52;;;;;;;40.75;34.05;;;7.90;99.90;;;;;;5022135;28;20034;-73
2021/05/02 01:35:18;;;;;;;40.40;35.45;;;7.80;99.90;;;;;;5025754;28;20496;-72
2021/05/02 01:37:49;;;;;;;30.23;26.98;;;7.80;99.90;;;;;;5023067;28;20029;-72
2021/05/02 01:40:16;;;;;;;32.05;28.55;;;7.80;99.90;;;;;;5018986;28;20491;-71
2021/05/02 01:42:42;;;;;;;39.38;33.70;;;7.90;99.90;;;;;;5003503;28;20032;-71
2021/05/02 01:45:09;;;;;;;37.72;30.40;;;7.90;99.90;;;;;;5007991;28;20025;-72
2021/05/02 01:47:37;;;;;;;33.72;28.73;;;7.80;99.90;;;;;;5023695;28;20025;-71
2021/05/02 01:50:08;;;;;;;29.05;25.55;;;7.70;99.90;;;;;;4997809;28;20108;-71
2021/05/02 01:52:46;;;;;;;28.10;25.10;;;7.70;99.90;;;;;;5012461;28;20029;-71
2021/05/02 01:55:13;;;;;;;28.77;25.77;;;7.80;99.90;;;;;;5006642;28;20080;-69
2021/05/02 01:57:39;;;;;;;27.00;24.05;;;7.80;99.90;;;;;;5031896;28;20386;-72
2021/05/02 02:00:13;;;;;;;25.90;23.13;;;7.70;99.90;;;;;;5031941;28;20048;-71
2021/05/02 02:02:40;;;;;;;24.17;21.58;;;7.80;99.90;;;;;;5031890;28;20022;-70
2021/05/02 02:05:06;;;;;;;25.85;22.45;;;7.80;99.90;;;;;;5005334;28;20072;-72
2021/05/02 02:07:33;;;;;;;23.67;21.17;;;7.70;99.90;;;;;;5014277;28;20026;-72
2021/05/02 02:09:59;;;;;;;28.95;25.90;;;7.70;99.90;;;;;;5032156;28;20026;-73
2021/05/02 02:12:25;;;;;;;31.95;28.05;;;7.70;99.90;;;;;;5032047;28;20506;-73
2021/05/02 02:14:52;;;;;;;34.10;29.05;;;7.70;99.90;;;;;;5031789;28;20036;-73
2021/05/02 02:17:19;;;;;;;32.95;28.90;;;7.80;99.90;;;;;;5014211;28;20368;-71
2021/05/02 02:19:46;;;;;;;36.28;30.48;;;7.90;99.90;;;;;;5022698;28;20040;-72
2021/05/02 02:22:13;;;;;;;38.40;30.58;;;7.90;99.90;;;;;;4994604;28;20060;-72
2021/05/02 02:24:44;;;;;;;42.30;31.52;;;7.90;99.90;;;;;;5011974;28;20034;-72
2021/05/02 02:27:10;;;;;;;48.20;35.92;;;7.80;99.90;;;;;;5015480;28;20025;-71
2021/05/02 02:29:47;;;;;;;48.42;32.80;;;7.80;99.90;;;;;;5021594;28;20030;-71
2021/05/02 02:32:14;;;;;;;48.55;34.55;;;7.90;99.90;;;;;;5007407;28;20034;-71
2021/05/02 02:34:46;;;;;;;54.70;36.38;;;7.80;99.90;;;;;;4994248;28;20113;-73
2021/05/02 02:37:19;;;;;;;60.33;38.95;;;7.80;99.90;;;;;;5007456;28;20084;-72
2021/05/02 02:39:51;;;;;;;65.85;42.38;;;7.70;99.90;;;;;;4994106;28;20029;-72
2021/05/02 02:42:18;;;;;;;67.40;41.97;;;7.50;99.90;;;;;;5011648;28;20030;-72
2021/05/02 02:44:50;;;;;;;64.68;41.90;;;7.50;99.90;;;;;;5011661;28;20037;-71
2021/05/02 02:47:25;;;;;;;73.80;44.70;;;7.50;99.90;;;;;;5011964;28;20076;-72
2021/05/02 02:49:57;;;;;;;66.85;41.17;;;7.60;99.90;;;;;;5010926;28;20025;-72
2021/05/02 02:52:25;;;;;;;66.40;40.22;;;7.50;99.90;;;;;;5013752;28;20056;-72
2021/05/02 02:55:03;;;;;;;69.88;44.22;;;7.40;99.90;;;;;;4995682;28;20443;-73
2021/05/02 02:57:32;;;;;;;63.95;39.25;;;7.30;99.90;;;;;;4993987;28;20109;-72
2021/05/02 03:00:01;;;;;;;68.70;44.60;;;7.30;99.90;;;;;;5011533;28;20026;-71
2021/05/02 03:02:30;;;;;;;72.40;45.80;;;7.10;99.90;;;;;;4993981;28;20037;-72
2021/05/02 03:04:58;;;;;;;75.70;47.20;;;7.10;99.90;;;;;;4993994;28;20037;-72
2021/05/02 03:07:24;;;;;;;71.72;44.35;;;7.10;99.90;;;;;;5026525;28;20045;-72
2021/05/02 03:09:51;;;;;;;79.85;47.70;;;6.90;99.90;;;;;;4997837;28;20029;-73
2021/05/02 03:12:21;;;;;;;78.82;47.92;;;6.90;99.90;;;;;;5029448;28;20044;-73
2021/05/02 03:14:56;;;;;;;78.75;48.85;;;6.80;99.90;;;;;;5026980;28;20022;-73
2021/05/02 03:17:28;;;;;;;76.60;48.70;;;6.80;99.90;;;;;;5011222;28;20017;-73
2021/05/02 03:20:04;;;;;;;80.60;52.13;;;6.80;99.90;;;;;;4993653;28;20030;-73
2021/05/02 03:22:32;;;;;;;82.85;51.28;;;6.70;99.90;;;;;;5028932;28;20101;-73
2021/05/02 03:25:01;;;;;;;85.60;54.33;;;6.60;99.90;;;;;;5027471;28;20028;-74
2021/05/02 03:27:34;;;;;;;84.32;52.47;;;6.70;99.90;;;;;;5015684;28;20026;-73
2021/05/02 03:30:06;;;;;;;80.72;48.67;;;6.50;99.90;;;;;;4997409;28;20030;-73
2021/05/02 03:32:35;;;;;;;73.85;49.28;;;6.50;99.90;;;;;;5014925;28;20553;-72
2021/05/02 03:35:04;;;;;;;75.68;46.88;;;6.40;99.90;;;;;;5014713;28;20022;-72
2021/05/02 03:37:33;;;;;;;78.13;51.75;;;6.40;99.90;;;;;;5014806;28;20045;-71
2021/05/02 03:39:59;;;;;;;77.03;48.78;;;6.30;99.90;;;;;;5014716;28;20026;-71
2021/05/02 03:42:26;;;;;;;79.35;53.30;;;6.40;99.90;;;;;;5005763;28;20095;-72
2021/05/02 03:44:52;;;;;;;74.05;47.22;;;6.30;99.90;;;;;;5018723;28;20030;-73
2021/05/02 03:47:17;;;;;;;76.90;48.95;;;6.30;99.90;;;;;;5014817;28;20025;-71
2021/05/02 03:49:42;;;;;;;69.60;44.90;;;6.20;99.90;;;;;;5010868;28;20044;-71
2021/05/02 03:52:08;;;;;;;72.57;48.42;;;6.10;99.90;;;;;;5034331;28;20034;-71
2021/05/02 03:54:34;;;;;;;67.90;46.58;;;6.10;99.90;;;;;;5032515;28;20104;-71
2021/05/02 03:56:59;;;;;;;69.90;45.92;;;6.10;99.90;;;;;;5014594;28;20022;-71
2021/05/02 03:59:26;;;;;;;68.28;46.80;;;6.10;99.90;;;;;;5014368;28;20081;-71
2021/05/02 04:01:57;;;;;;;67.53;46.80;;;6.10;99.90;;;;;;4996804;28;20049;-71
2021/05/02 04:04:24;;;;;;;63.10;42.97;;;6.10;99.90;;;;;;5029186;28;20582;-71
2021/05/02 04:06:51;;;;;;;65.38;45.65;;;6.00;99.90;;;;;;5028182;28;20041;-72
2021/05/02 04:09:18;;;;;;;57.35;39.72;;;5.90;99.90;;;;;;5019066;28;20030;-72
2021/05/02 04:11:45;;;;;;;60.88;43.28;;;6.00;99.90;;;;;;5034885;28;20041;-71
2021/05/02 04:14:13;;;;;;;60.38;43.67;;;5.90;99.90;;;;;;5016157;28;20502;-71
2021/05/02 04:16:40;;;;;;;57.80;42.67;;;5.90;99.90;;;;;;5025470;28;20026;-72
2021/05/02 04:19:07;;;;;;;60.00;42.83;;;5.90;99.90;;;;;;5001652;28;20453;-71
2021/05/02 04:21:33;;;;;;;62.72;44.03;;;5.90;99.90;;;;;;5025594;28;20025;-72
2021/05/02 04:23:59;;;;;;;58.55;43.30;;;5.80;99.90;;;;;;5033751;28;20495;-72
2021/05/02 04:26:25;;;;;;;55.28;40.72;;;5.90;99.90;;;;;;5023393;28;20112;-73
2021/05/02 04:28:50;;;;;;;63.47;45.83;;;5.80;99.90;;;;;;5013826;28;20035;-72
2021/05/02 04:31:16;;;;;;;67.25;45.92;;;6.00;99.90;;;;;;5013807;28;20065;-72
2021/05/02 04:33:42;;;;;;;65.47;46.67;;;5.90;99.90;;;;;;5002394;28;20028;-72
2021/05/02 04:36:07;;;;;;;68.07;44.63;;;5.90;99.90;;;;;;5035725;28;20014;-73
2021/05/02 04:38:34;;;;;;;62.13;44.95;;;5.90;99.90;;;;;;5005144;28;20017;-72
2021/05/02 04:41:00;;;;;;;62.35;45.03;;;5.90;99.90;;;;;;5007665;28;20022;-72
2021/05/02 04:43:26;;;;;;;59.63;42.65;;;5.80;99.90;;;;;;5029026;28;20041;-73
2021/05/02 04:45:51;;;;;;;62.80;46.10;;;5.90;99.90;;;;;;4997779;28;20033;-72
2021/05/02 04:48:17;;;;;;;63.08;45.22;;;5.90;99.90;;;;;;5001132;28;20092;-73
2021/05/02 04:50:42;;;;;;;64.53;44.83;;;5.80;99.90;;;;;;5024565;28;20026;-73
2021/05/02 04:53:08;;;;;;;58.17;42.50;;;5.90;99.90;;;;;;5027498;28;20386;-73
2021/05/02 04:55:34;;;;;;;60.65;43.92;;;5.90;99.90;;;;;;5016277;28;20433;-72
2021/05/02 04:58:01;;;;;;;62.90;44.65;;;5.80;99.90;;;;;;4992021;28;20049;-73
2021/05/02 05:00:27;;;;;;;64.25;44.40;;;5.90;99.90;;;;;;5024861;28;20046;-73
2021/05/02 05:02:56;;;;;;;64.72;43.83;;;5.80;99.90;;;;;;5011621;28;20029;-73
2021/05/02 05:05:21;;;;;;;58.53;43.25;;;5.90;99.90;;;;;;4998094;28;20026;-73
2021/05/02 05:07:47;;;;;;;62.97;44.20;;;5.80;99.90;;;;;;5012313;28;20033;-72
2021/05/02 05:10:12;;;;;;;65.60;45.70;;;6.00;99.90;;;;;;5023106;28;20030;-71
2021/05/02 05:12:39;;;;;;;66.57;46.17;;;6.00;99.90;;;;;;5013089;28;20033;-72
2021/05/02 05:15:06;;;;;;;60.08;42.72;;;6.00;99.90;;;;;;4995301;28;20072;-71
2021/05/02 05:17:32;;;;;;;64.65;43.80;;;6.10;99.90;;;;;;5012972;28;20053;-72
2021/05/02 05:19:57;;;;;;;73.13;47.42;;;6.00;99.90;;;;;;5017673;28;20073;-71
2021/05/02 05:22:23;;;;;;;71.93;47.67;;;6.10;99.90;;;;;;5012865;28;20101;-71
2021/05/02 05:24:49;;;;;;;63.38;42.35;;;6.00;99.90;;;;;;5005812;28;20021;-71
2021/05/02 05:27:14;;;;;;;68.65;46.33;;;6.10;99.90;;;;;;5015363;28;20029;-71
2021/05/02 05:29:40;;;;;;;77.05;48.13;;;6.10;99.90;;;;;;5012602;28;20676;-71
2021/05/02 05:32:05;;;;;;;70.22;46.35;;;6.10;99.90;;;;;;5012105;28;20030;-71
2021/05/02 05:34:31;;;;;;;73.07;48.70;;;6.20;99.90;;;;;;5012799;28;20050;-71
2021/05/02 05:36:57;;;;;;;73.30;48.85;;;6.20;99.90;;;;;;4995083;28;20028;-71
2021/05/02 05:39:23;;;;;;;85.45;51.63;;;6.30;99.90;;;;;;4995040;28;20022;-72
2021/05/02 05:41:48;;;;;;;78.22;50.17;;;6.30;99.90;;;;;;4994845;28;20080;-73
2021/05/02 05:44:14;;;;;;;77.38;50.30;;;6.30;99.90;;;;;;5012333;28;20041;-73
2021/05/02 05:46:39;;;;;;;76.07;49.17;;;6.30;99.90;;;;;;5016212;28;20476;-71
2021/05/02 05:49:05;;;;;;;83.22;52.75;;;6.30;99.90;;;;;;5021886;28;20045;-72
2021/05/02 05:51:31;;;;;;;73.80;48.10;;;6.30;99.90;;;;;;5012299;28;20062;-73
2021/05/02 05:53:56;;;;;;;73.15;48.95;;;6.40;99.90;;;;;;5012129;28;20557;-73
2021/05/02 05:56:22;;;;;;;84.50;52.70;;;6.40;99.90;;;;;;4994713;28;20026;-72
2021/05/02 05:58:47;;;;;;;85.32;53.08;;;6.40;99.90;;;;;;5012301;28;20026;-71
2021/05/02 06:01:13;;;;;;;90.90;54.13;;;6.30;99.90;;;;;;5012193;28;20365;-71
2021/05/02 06:03:38;;;;;;;74.15;47.25;;;6.40;99.90;;;;;;5011980;28;20048;-71
2021/05/02 06:06:04;;;;;;;81.05;51.97;;;6.50;99.90;;;;;;5012210;28;20033;-71
2021/05/02 06:08:29;;;;;;;74.47;48.92;;;6.40;99.90;;;;;;5012015;28;20029;-71
2021/05/02 06:10:55;;;;;;;70.25;47.50;;;6.50;99.90;;;;;;5027750;28;20037;-71
2021/05/02 06:13:20;;;;;;;65.50;45.35;;;6.40;99.90;;;;;;5031855;28;20105;-71
2021/05/02 06:15:46;;;;;;;71.35;49.55;;;6.50;99.90;;;;;;5011528;28;20108;-72
2021/05/02 06:18:12;;;;;;;74.45;51.78;;;6.50;99.90;;;;;;5010356;28;20030;-72
2021/05/02 06:20:38;;;;;;;71.95;49.05;;;6.40;99.90;;;;;;5008653;28;20529;-71
2021/05/02 06:23:03;;;;;;;70.93;47.90;;;6.40;99.90;;;;;;5021906;28;20033;-73
2021/05/02 06:25:29;;;;;;;66.10;45.60;;;6.50;99.90;;;;;;5014422;28;20028;-70
2021/05/02 06:27:56;;;;;;;69.68;48.03;;;6.70;99.90;;;;;;5003678;28;20029;-70
2021/05/02 06:30:23;;;;;;;66.40;46.58;;;6.60;99.90;;;;;;5018228;28;20017;-70
2021/05/02 06:32:48;;;;;;;74.20;50.63;;;6.60;99.90;;;;;;5004193;28;20105;-70
2021/05/02 06:35:14;;;;;;;63.38;45.78;;;6.80;99.90;;;;;;5015277;28;20021;-71
2021/05/02 06:37:39;;;;;;;70.35;48.15;;;6.70;99.90;;;;;;5001263;28;20029;-71
2021/05/02 06:40:06;;;;;;;60.47;43.33;;;6.80;99.90;;;;;;5018601;28;20102;-71
2021/05/02 06:42:31;;;;;;;66.00;45.80;;;6.80;99.90;;;;;;5013901;28;20045;-68
2021/05/02 06:44:57;;;;;;;60.97;42.50;;;6.90;99.90;;;;;;5022362;28;20026;-70
2021/05/02 06:47:23;;;;;;;56.83;40.55;;;7.00;99.90;;;;;;5017753;28;20105;-71
2021/05/02 06:49:49;;;;;;;59.83;44.13;;;6.90;99.90;;;;;;5031204;28;20026;-68
2021/05/02 06:52:15;;;;;;;58.92;41.97;;;6.90;99.90;;;;;;5035409;28;20684;-69
2021/05/02 06:54:40;;;;;;;55.17;41.08;;;7.00;99.90;;;;;;5035100;28;20109;-72
2021/05/02 06:57:06;;;;;;;62.10;45.47;;;6.90;99.90;;;;;;5035384;28;20025;-72
2021/05/02 06:59:31;;;;;;;54.53;40.40;;;6.90;99.90;;;;;;5004391;28;20109;-72
2021/05/02 07:01:57;;;;;;;56.05;39.72;;;6.90;99.90;;;;;;5017473;28;20479;-72
2021/05/02 07:04:23;;;;;;;50.05;37.67;;;7.00;99.90;;;;;;5033842;28;20026;-72
2021/05/02 07:06:49;;;;;;;52.17;41.05;;;7.00;99.90;;;;;;5015258;28;20101;-72
2021/05/02 07:09:15;;;;;;;56.72;41.83;;;7.10;99.90;;;;;;5016653;28;20061;-73
2021/05/02 07:11:40;;;;;;;50.60;38.03;;;7.00;99.90;;;;;;5027178;28;20068;-71
2021/05/02 07:14:06;;;;;;;49.75;39.45;;;7.10;99.90;;;;;;5028623;28;20026;-71
2021/05/02 07:16:32;;;;;;;44.13;35.75;;;7.30;99.90;;;;;;5015329;28;20445;-73
2021/05/02 07:18:58;;;;;;;48.83;37.78;;;7.40;99.90;;;;;;5015062;28;20034;-72
2021/05/02 07:21:24;;;;;;;45.85;37.55;;;7.60;99.90;;;;;;5014989;28;20392;-72
2021/05/02 07:23:51;;;;;;;49.30;39.63;;;7.50;99.90;;;;;;5014731;28;20030;-72
2021/05/02 07:26:21;;;;;;;44.38;36.47;;;7.70;99.90;;;;;;5015100;28;20034;-72
2021/05/02 07:28:47;;;;;;;44.28;35.13;;;7.70;99.90;;;;;;5014911;28;20108;-72
2021/05/02 07:31:13;;;;;;;42.03;33.95;;;7.80;99.90;;;;;;5014937;28;20026;-72
2021/05/02 07:33:39;;;;;;;41.53;32.28;;;7.80;99.90;;;;;;5014727;28;20025;-72
2021/05/02 07:36:06;;;;;;;39.78;33.22;;;7.50;99.90;;;;;;5003946;28;20510;-72
2021/05/02 07:38:31;;;;;;;40.08;32.97;;;7.40;99.90;;;;;;4990740;28;20399;-72
2021/05/02 07:40:57;;;;;;;36.92;29.58;;;7.40;99.90;;;;;;5034419;28;20029;-72
2021/05/02 07:43:24;;;;;;;40.60;32.65;;;7.40;99.90;;;;;;5034116;28;20041;-72
2021/05/02 07:45:50;;;;;;;36.67;29.83;;;7.40;99.90;;;;;;5034464;28;20075;-72
2021/05/02 07:48:16;;;;;;;41.38;33.03;;;7.40;99.90;;;;;;5034219;28;20025;-72
2021/05/02 07:50:41;;;;;;;41.13;32.83;;;7.50;99.90;;;;;;5034130;28;20040;-72
2021/05/02 07:53:07;;;;;;;37.03;29.25;;;7.50;99.90;;;;;;5033591;28;20021;-71
2021/05/02 07:55:33;;;;;;;38.75;32.70;;;7.60;99.90;;;;;;5009284;28;20116;-71
2021/05/02 07:57:59;;;;;;;41.70;33.42;;;7.60;99.90;;;;;;5034213;28;20484;-71
2021/05/02 08:00:25;;;;;;;43.10;33.03;;;7.70;99.90;;;;;;5024015;28;20137;-68
2021/05/02 08:02:50;;;;;;;36.97;31.25;;;7.70;99.90;;;;;;5014358;28;20543;-72
2021/05/02 08:05:16;;;;;;;34.78;29.45;;;7.60;99.90;;;;;;4996462;28;20048;-71
2021/05/02 08:07:43;;;;;;;36.35;30.80;;;7.90;99.90;;;;;;5017447;28;20022;-71
2021/05/02 08:10:09;;;;;;;36.67;28.88;;;7.50;99.90;;;;;;5016434;28;20387;-71
2021/05/02 08:12:34;;;;;;;38.53;30.85;;;7.40;99.90;;;;;;5033764;28;20029;-71
2021/05/02 08:15:00;;;;;;;32.40;28.17;;;7.40;99.90;;;;;;5033775;28;20048;-71
2021/05/02 08:17:26;;;;;;;33.45;27.60;;;7.40;99.90;;;;;;5016214;28;20021;-71
2021/05/02 08:19:52;;;;;;;33.42;28.13;;;7.40;99.90;;;;;;5019247;28;20018;-71
2021/05/02 08:22:19;;;;;;;33.67;29.50;;;7.40;99.90;;;;;;5013913;28;20034;-71
2021/05/02 08:24:44;;;;;;;32.92;27.77;;;7.40;99.90;;;;;;5013822;28;20395;-73
2021/05/02 08:27:11;;;;;;;34.22;28.10;;;7.50;99.90;;;;;;4996221;28;20030;-72
2021/05/02 08:29:37;;;;;;;34.03;29.35;;;7.50;99.90;;;;;;5024300;28;20036;-73
2021/05/02 08:32:03;;;;;;;33.63;29.48;;;7.60;99.90;;;;;;5011847;28;20034;-74
2021/05/02 08:34:28;;;;;;;31.05;26.10;;;7.60;99.90;;;;;;5013226;28;20026;-74
2021/05/02 08:36:54;;;;;;;30.83;25.45;;;7.60;99.90;;;;;;5017416;28;20506;-73
2021/05/02 08:39:20;;;;;;;31.17;25.23;;;7.40;99.90;;;;;;5015709;28;20071;-73
2021/05/02 08:41:45;;;;;;;28.48;23.70;;;7.40;99.90;;;;;;5033498;28;20467;-74
2021/05/02 08:44:11;;;;;;;31.35;25.08;;;7.50;99.90;;;;;;5033228;28;20029;-75
2021/05/02 08:46:37;;;;;;;27.35;24.40;;;7.40;99.90;;;;;;5033347;28;20638;-75
2021/05/02 08:49:04;;;;;;;23.88;20.38;;;7.40;99.90;;;;;;5032966;28;20109;-74
2021/05/02 08:51:31;;;;;;;22.23;19.70;;;7.40;99.90;;;;;;5011568;28;20025;-69
2021/05/02 08:53:56;;;;;;;24.85;20.70;;;7.30;99.90;;;;;;5013397;28;20030;-73
2021/05/02 08:56:23;;;;;;;22.35;19.20;;;7.20;99.90;;;;;;5013385;28;20097;-71
2021/05/02 08:58:49;;;;;;;22.02;19.25;;;7.30;99.90;;;;;;4995712;28;20466;-71
2021/05/02 09:01:14;;;;;;;25.90;22.05;;;7.30;99.90;;;;;;5013171;28;20114;-71
2021/05/02 09:03:45;;;;;;;25.80;22.73;;;7.30;99.90;;;;;;5012892;28;20104;-71
2021/05/02 09:06:19;;;;;;;20.20;17.25;;;7.30;99.90;;;;;;5008708;28;20032;-72
2021/05/02 09:08:46;;;;;;;20.25;17.33;;;7.30;99.90;;;;;;5012953;28;20026;-71
2021/05/02 09:11:12;;;;;;;21.30;18.30;;;7.10;99.90;;;;;;5012886;28;20025;-71
2021/05/02 09:13:50;;;;;;;21.23;18.92;;;7.30;99.90;;;;;;5012992;28;20022;-72
2021/05/02 09:16:16;;;;;;;22.33;17.58;;;7.40;99.90;;;;;;5000225;28;20087;-71
2021/05/02 09:18:49;;;;;;;21.83;19.08;;;7.40;99.90;;;;;;5021971;28;20061;-72
2021/05/02 09:21:27;;;;;;;18.40;16.42;;;7.30;99.90;;;;;;4995305;28;20104;-71
2021/05/02 09:23:54;;;;;;;19.42;17.35;;;7.50;99.90;;;;;;5012746;28;20073;-71
2021/05/02 09:26:34;;;;;;;19.92;17.83;;;7.70;99.90;;;;;;5012850;28;20018;-71
2021/05/02 09:29:06;;;;;;;19.42;16.85;;;7.70;99.90;;;;;;5012759;28;20476;-73
2021/05/02 09:31:40;;;;;;;16.83;14.98;;;7.80;99.90;;;;;;4995058;28;20052;-71
2021/05/02 09:34:14;;;;;;;17.80;15.60;;;7.70;99.90;;;;;;5020120;28;20025;-71
2021/05/02 09:37:09;;;;;;;19.65;16.98;;;7.50;99.90;;;;;;5017213;28;20018;-72
2021/05/02 09:39:56;;;;;;;18.52;16.25;;;7.60;99.90;;;;;;4996035;28;20038;-72
2021/05/02 09:42:35;;;;;;;20.08;16.05;;;7.70;99.90;;;;;;4984269;28;20049;-71
2021/05/02 09:45:03;;;;;;;17.27;15.48;;;8.00;99.90;;;;;;5012365;28;20034;-72
2021/05/02 09:47:42;;;;;;;19.25;17.10;;;8.10;99.90;;;;;;4999451;28;20081;-72
2021/05/02 09:50:08;;;;;;;16.73;15.07;;;7.90;99.90;;;;;;5012604;28;20483;-72
2021/05/02 09:52:54;;;;;;;18.38;15.73;;;7.90;99.90;;;;;;5012522;28;20030;-71
2021/05/02 09:55:22;;;;;;;22.80;17.20;;;8.10;99.90;;;;;;5003287;28;20106;-71
2021/05/02 09:57:52;;;;;;;17.83;15.93;;;8.10;99.90;;;;;;5031902;28;20029;-71
2021/05/02 10:00:37;;;;;;;19.20;17.08;;;8.20;99.90;;;;;;5032012;28;20039;-71
2021/05/02 10:03:07;;;;;;;18.17;16.38;;;8.30;99.90;;;;;;5031976;28;20442;-72
2021/05/02 10:05:34;;;;;;;18.88;16.88;;;8.60;99.90;;;;;;5031806;28;20530;-72
2021/05/02 10:08:00;;;;;;;17.70;15.77;;;8.70;99.90;;;;;;5031740;28;20049;-71
2021/05/02 10:10:26;;;;;;;17.50;15.73;;;8.70;99.90;;;;;;5019028;28;20058;-71
2021/05/02 10:12:53;;;;;;;18.30;16.40;;;8.60;99.90;;;;;;4994510;28;20026;-72
2021/05/02 10:15:23;;;;;;;21.17;18.98;;;8.30;99.90;;;;;;5011826;28;20025;-71
2021/05/02 10:17:52;;;;;;;22.25;19.95;;;8.30;99.90;;;;;;5011445;28;20030;-71
2021/05/02 10:20:20;;;;;;;19.80;17.58;;;8.00;99.90;;;;;;4994553;28;20029;-71
2021/05/02 10:22:48;;;;;;;19.52;17.38;;;7.90;99.90;;;;;;5011900;28;20101;-71
2021/05/02 10:25:14;;;;;;;20.42;18.05;;;8.00;99.90;;;;;;5011886;28;20049;-71
2021/05/02 10:27:45;;;;;;;20.25;18.15;;;7.90;99.90;;;;;;5012113;28;20018;-72
2021/05/02 10:30:19;;;;;;;23.00;20.63;;;7.90;99.90;;;;;;5011797;28;20076;-71
2021/05/02 10:32:50;;;;;;;21.77;18.80;;;7.80;99.90;;;;;;5020023;28;20025;-71
2021/05/02 10:35:16;;;;;;;20.95;18.58;;;7.70;99.90;;;;;;5000578;28;20029;-71
2021/05/02 10:37:55;;;;;;;23.52;19.80;;;7.60;99.90;;;;;;5023386;28;20014;-71
2021/05/02 10:40:21;;;;;;;24.65;20.55;;;7.70;99.90;;;;;;5004145;28;20026;-71
2021/05/02 10:42:53;;;;;;;25.92;21.90;;;7.60;99.90;;;;;;5023401;28;20036;-71
2021/05/02 10:45:27;;;;;;;23.42;20.67;;;7.80;99.90;;;;;;5021841;28;20476;-71
2021/05/02 10:47:54;;;;;;;24.38;21.35;;;7.70;99.90;;;;;;5002783;28;20025;-71
2021/05/02 10:50:40;;;;;;;23.13;20.58;;;8.00;99.90;;;;;;5005372;28;20112;-71
2021/05/02 10:53:14;;;;;;;27.63;23.65;;;8.40;99.90;;;;;;5021144;28;20155;-70
2021/05/02 10:55:57;;;;;;;23.42;20.38;;;8.90;99.90;;;;;;4999624;28;20120;-72
2021/05/02 10:58:23;;;;;;;20.35;18.25;;;8.90;99.90;;;;;;5021209;28;20045;-71
2021/05/02 11:00:56;;;;;;;24.02;20.98;;;9.10;99.90;;;;;;5030554;28;20018;-72
2021/05/02 11:03:41;;;;;;;20.00;17.88;;;9.50;99.90;;;;;;5005431;28;20022;-72
2021/05/02 11:06:10;;;;;;;21.95;19.55;;;9.50;99.90;;;;;;5021821;28;20050;-71
2021/05/02 11:08:57;;;;;;;18.42;16.42;;;9.90;99.90;;;;;;5022465;28;20030;-71
2021/05/02 11:14:26;;;;;;;16.60;14.85;;;9.80;99.90;;;;;;5013114;28;20034;-71
2021/05/02 11:16:54;;;;;;;21.25;17.15;;;9.80;99.90;;;;;;5023001;28;20387;-72
2021/05/02 11:19:20;;;;;;;18.42;16.63;;;9.50;99.90;;;;;;5021590;28;20067;-72
2021/05/02 11:21:49;;;;;;;19.02;17.02;;;9.50;99.90;;;;;;5023062;28;20503;-72
2021/05/02 11:24:15;;;;;;;19.85;17.75;;;9.10;99.90;;;;;;5016331;28;20034;-72
2021/05/02 11:29:48;;;;;;;19.65;17.50;;;8.80;99.90;;;;;;5024423;28;20022;-71
2021/05/02 11:32:39;;;;;;;19.85;17.70;;;9.10;99.90;;;;;;5029587;28;20392;-70
2021/05/02 11:35:09;;;;;;;19.48;16.08;;;9.10;99.90;;;;;;5024599;28;20018;-72
2021/05/02 11:37:56;;;;;;;19.85;17.20;;;9.00;99.90;;;;;;5013854;28;20018;-71
2021/05/02 11:40:25;;;;;;;16.33;14.60;;;9.00;99.90;;;;;;5011070;28;20504;-72
2021/05/02 11:42:54;;;;;;;17.65;15.88;;;9.00;99.90;;;;;;5034726;28;20022;-72
2021/05/02 11:45:21;;;;;;;18.77;16.88;;;8.90;99.90;;;;;;5028032;28;20049;-72
2021/05/02 11:47:47;;;;;;;18.70;16.35;;;8.80;99.90;;;;;;5014803;28;20018;-72
2021/05/02 11:50:14;;;;;;;17.92;15.73;;;8.70;99.90;;;;;;5001279;28;20084;-72
2021/05/02 11:52:49;;;;;;;17.95;16.15;;;8.70;99.90;;;;;;5027514;28;20371;-73
2021/05/02 11:55:27;;;;;;;19.07;17.17;;;8.70;99.90;;;;;;5002434;28;20081;-72
2021/05/02 11:57:53;;;;;;;17.48;15.73;;;9.00;99.90;;;;;;5030362;28;20287;-73
2021/05/02 12:00:42;;;;;;;16.67;14.90;;;9.10;99.90;;;;;;5025121;28;20440;-72
2021/05/02 12:03:12;;;;;;;17.60;15.77;;;9.80;99.90;;;;;;5014648;28;20451;-72
2021/05/02 12:05:52;;;;;;;15.80;14.30;;;10.30;99.90;;;;;;5027552;28;20052;-72
2021/05/02 12:08:21;;;;;;;17.30;14.55;;;11.00;99.90;;;;;;5034413;28;20368;-72
2021/05/02 12:10:55;;;;;;;16.25;14.57;;;11.10;99.90;;;;;;5018627;28;20030;-73
2021/05/02 12:13:35;;;;;;;16.75;15.00;;;11.10;99.90;;;;;;5014242;28;20325;-69
2021/05/02 12:16:14;;;;;;;15.25;13.65;;;11.50;99.90;;;;;;5014528;28;20435;-73
2021/05/02 12:18:59;;;;;;;16.40;14.70;;;11.60;99.90;;;;;;5013798;28;20061;-72
2021/05/02 12:21:27;;;;;;;15.73;14.13;;;11.70;99.90;;;;;;4986413;28;20053;-72
2021/05/02 12:24:10;;;;;;;14.65;13.15;;;12.10;99.90;;;;;;5017473;28;20479;-73
2021/05/02 12:26:43;;;;;;;16.98;13.40;;;12.50;99.90;;;;;;5026327;28;20038;-72
2021/05/02 12:29:12;;;;;;;15.90;14.02;;;12.20;99.90;;;;;;4983798;28;20053;-72
2021/05/02 12:31:38;;;;;;;14.70;12.55;;;11.70;99.90;;;;;;4996082;28;20026;-72
2021/05/02 12:34:08;;;;;;;14.77;12.13;;;12.30;99.90;;;;;;5013715;28;20049;-73
2021/05/02 12:36:34;;;;;;;12.30;11.10;;;12.80;99.90;;;;;;5015845;28;20022;-72
2021/05/02 12:39:14;;;;;;;13.45;12.07;;;13.10;99.90;;;;;;5030278;28;20018;-72
2021/05/02 12:41:41;;;;;;;8.93;7.57;;;13.00;99.90;;;;;;5013984;28;20021;-73
2021/05/02 12:44:11;;;;;;;13.70;12.30;;;12.50;99.90;;;;;;4995873;28;20037;-74
2021/05/02 12:46:47;;;;;;;11.30;10.05;;;11.80;99.90;;;;;;5013396;28;20369;-73
2021/05/02 12:49:23;;;;;;;9.68;8.68;;;11.30;99.90;;;;;;5013524;28;20026;-73